Time;durP1;ratioP1;P1;durP2;ratioP2;P2;SDS_P1;SDS_P2;PMS_P1;PMS_P2;Temp;Humidity;BMP_temperature;BMP_pressure;BME280_temperature;BME280_humidity;BME280_pressure;Samples;Min_cycle;Max_cycle;Signal;HPM_P1;HPM_P2
2022/02/12 00:00:06;;;;;;;22.35;9.27;;;3.20;72.40;;;;;;5067243;28;20025;-67
2022/02/12 00:02:32;;;;;;;16.92;8.20;;;3.20;72.50;;;;;;5069048;28;20056;-67
2022/02/12 00:04:58;;;;;;;17.13;8.57;;;3.10;72.50;;;;;;5085167;28;20027;-68
2022/02/12 00:07:24;;;;;;;14.75;7.65;;;3.10;72.60;;;;;;5068852;28;20028;-67
2022/02/12 00:09:49;;;;;;;16.48;8.48;;;3.10;72.60;;;;;;5069426;28;20593;-67
2022/02/12 00:12:15;;;;;;;17.83;8.73;;;3.10;72.60;;;;;;5070525;28;20028;-68
2022/02/12 00:14:42;;;;;;;13.18;7.95;;;3.10;72.60;;;;;;5069336;28;20491;-68
2022/02/12 00:17:09;;;;;;;22.35;8.70;;;3.00;72.50;;;;;;5069270;28;20466;-68
2022/02/12 00:19:34;;;;;;;20.67;8.55;;;3.00;72.60;;;;;;5068811;28;20482;-64
2022/02/12 00:22:00;;;;;;;18.08;7.95;;;3.00;72.70;;;;;;5053462;28;20073;-63
2022/02/12 00:24:26;;;;;;;13.90;8.18;;;3.00;72.80;;;;;;5068870;28;20040;-64
2022/02/12 00:26:51;;;;;;;17.38;8.20;;;3.00;72.80;;;;;;5069323;28;20025;-64
2022/02/12 00:29:17;;;;;;;16.77;7.53;;;2.90;72.80;;;;;;5069069;28;20043;-64
2022/02/12 00:31:43;;;;;;;17.65;8.18;;;2.90;72.90;;;;;;5068295;28;20052;-64
2022/02/12 00:34:08;;;;;;;18.27;9.35;;;2.90;72.90;;;;;;5068173;28;20033;-67
2022/02/12 00:36:34;;;;;;;15.32;8.10;;;2.90;72.80;;;;;;5070189;28;20039;-63
2022/02/12 00:39:00;;;;;;;19.83;8.45;;;2.90;72.90;;;;;;5069652;28;20037;-68
2022/02/12 00:41:26;;;;;;;17.38;8.23;;;2.90;73.00;;;;;;5068840;28;20033;-68
2022/02/12 00:43:51;;;;;;;17.05;8.18;;;2.90;73.10;;;;;;5069246;28;20020;-68
2022/02/12 00:46:17;;;;;;;15.70;7.95;;;2.90;73.10;;;;;;5070021;28;20815;-68
2022/02/12 00:48:43;;;;;;;20.27;9.27;;;2.80;73.00;;;;;;5071543;28;20475;-68
2022/02/12 00:51:08;;;;;;;18.73;7.72;;;2.80;73.10;;;;;;5054900;28;20048;-68
2022/02/12 00:53:34;;;;;;;19.77;9.50;;;2.80;73.20;;;;;;5049208;28;20037;-64
2022/02/12 00:56:00;;;;;;;23.17;8.95;;;2.80;73.30;;;;;;5049380;28;20095;-63
2022/02/12 00:58:25;;;;;;;17.92;8.57;;;2.70;73.50;;;;;;5049213;28;20056;-63
2022/02/12 01:00:51;;;;;;;17.60;8.57;;;2.80;73.50;;;;;;5049206;28;20076;-63
2022/02/12 01:03:17;;;;;;;18.27;7.93;;;2.70;73.50;;;;;;5048939;28;20025;-63
2022/02/12 01:05:43;;;;;;;18.17;7.88;;;2.70;73.50;;;;;;5049634;28;20063;-63
2022/02/12 01:08:08;;;;;;;18.48;9.27;;;2.70;73.60;;;;;;5049156;28;20033;-64
2022/02/12 01:10:35;;;;;;;19.00;8.15;;;2.70;73.60;;;;;;5051066;28;20041;-64
2022/02/12 01:13:01;;;;;;;15.90;7.35;;;2.70;73.70;;;;;;5057479;28;20598;-63
2022/02/12 01:15:27;;;;;;;18.27;8.88;;;2.60;73.60;;;;;;5072132;28;20035;-64
2022/02/12 01:17:53;;;;;;;20.17;7.88;;;2.60;73.60;;;;;;5071002;28;20481;-63
2022/02/12 01:20:20;;;;;;;19.33;8.68;;;2.60;73.80;;;;;;5072465;28;20020;-63
2022/02/12 01:22:48;;;;;;;18.50;8.00;;;2.60;73.80;;;;;;5072251;28;20050;-64
2022/02/12 01:25:17;;;;;;;17.60;8.00;;;2.60;73.80;;;;;;5071692;28;20048;-63
2022/02/12 01:27:43;;;;;;;17.20;8.18;;;2.60;73.80;;;;;;5072404;28;20044;-63
2022/02/12 01:30:10;;;;;;;18.75;7.95;;;2.50;73.70;;;;;;5087346;28;20481;-63
2022/02/12 01:32:37;;;;;;;17.10;7.50;;;2.50;73.70;;;;;;5072002;28;20024;-63
2022/02/12 01:35:04;;;;;;;19.77;8.00;;;2.50;73.70;;;;;;5072181;28;20024;-63
2022/02/12 01:37:30;;;;;;;16.85;8.18;;;2.50;73.80;;;;;;5072117;28;20067;-63
2022/02/12 01:39:56;;;;;;;20.67;7.90;;;2.50;73.80;;;;;;5070771;28;20428;-63
2022/02/12 01:42:22;;;;;;;16.45;7.65;;;2.50;73.80;;;;;;5071202;28;20468;-63
2022/02/12 01:44:48;;;;;;;21.15;8.05;;;2.40;73.80;;;;;;5071844;28;20044;-64
2022/02/12 01:47:14;;;;;;;21.77;9.40;;;2.40;74.10;;;;;;5070365;28;20032;-63
2022/02/12 01:49:41;;;;;;;17.65;8.27;;;2.40;74.10;;;;;;5071530;28;20037;-64
2022/02/12 01:52:09;;;;;;;14.20;7.95;;;2.40;74.10;;;;;;5072189;28;20029;-63
2022/02/12 01:54:36;;;;;;;21.83;8.50;;;2.40;74.10;;;;;;5071854;28;20047;-63
2022/02/12 01:57:03;;;;;;;17.75;8.18;;;2.40;74.10;;;;;;5071952;28;20053;-64
2022/02/12 01:59:30;;;;;;;17.50;7.78;;;2.40;74.40;;;;;;5068953;28;20036;-67
2022/02/12 02:01:56;;;;;;;20.83;8.38;;;2.40;74.20;;;;;;5070946;28;20045;-68
2022/02/12 02:04:22;;;;;;;21.77;7.90;;;2.30;74.10;;;;;;5070950;28;20025;-67
2022/02/12 02:06:48;;;;;;;17.70;8.00;;;2.30;74.20;;;;;;5071153;28;20060;-67
2022/02/12 02:09:18;;;;;;;14.85;7.82;;;2.30;74.20;;;;;;5070687;28;20052;-68
2022/02/12 02:11:48;;;;;;;23.70;8.98;;;2.30;74.30;;;;;;5064247;28;20032;-64
2022/02/12 02:14:14;;;;;;;19.95;8.18;;;2.30;74.50;;;;;;5070632;28;20024;-67
2022/02/12 02:16:42;;;;;;;17.40;7.75;;;2.30;74.60;;;;;;5070206;28;20049;-67
2022/02/12 02:19:08;;;;;;;22.75;8.80;;;2.30;74.40;;;;;;5070035;28;20035;-65
2022/02/12 02:21:39;;;;;;;18.52;8.25;;;2.20;74.30;;;;;;5070744;28;20552;-67
2022/02/12 02:24:06;;;;;;;20.70;7.18;;;2.20;74.30;;;;;;5071370;28;20479;-64
2022/02/12 02:26:33;;;;;;;17.08;8.30;;;2.20;74.30;;;;;;5069157;28;20086;-63
2022/02/12 02:28:59;;;;;;;19.38;7.70;;;2.20;74.30;;;;;;5070289;28;20080;-63
2022/02/12 02:31:25;;;;;;;19.38;8.07;;;2.20;74.30;;;;;;5070037;28;20064;-63
2022/02/12 02:33:52;;;;;;;19.27;9.32;;;2.10;74.20;;;;;;5050921;28;20552;-67
2022/02/12 02:36:17;;;;;;;17.00;7.53;;;2.10;74.30;;;;;;5050085;28;20043;-67
2022/02/12 02:38:43;;;;;;;14.63;7.18;;;2.10;74.30;;;;;;5066158;28;20625;-67
2022/02/12 02:41:10;;;;;;;18.52;7.93;;;2.10;74.40;;;;;;5051170;28;20760;-68
2022/02/12 02:43:36;;;;;;;18.17;7.97;;;2.10;74.40;;;;;;5050893;28;20108;-67
2022/02/12 02:46:03;;;;;;;19.63;8.13;;;2.10;74.40;;;;;;5050346;28;20033;-67
2022/02/12 02:48:29;;;;;;;17.15;8.10;;;2.10;74.50;;;;;;5052996;28;20020;-67
2022/02/12 06:32:28;;;;;;;18.70;7.63;;;-0.80;83.00;;;;;;4692493;23;8322375;-68
2022/02/12 06:34:58;;;;;;;13.73;6.40;;;-0.60;84.90;;;;;;4995444;28;20028;-67
2022/02/12 06:37:24;;;;;;;19.20;6.50;;;-0.50;85.30;;;;;;4986136;28;20374;-67
2022/02/12 06:39:49;;;;;;;19.10;7.00;;;-0.30;85.30;;;;;;4952663;28;20034;-67
2022/02/12 06:42:15;;;;;;;16.63;6.82;;;-0.10;85.00;;;;;;4990765;28;20043;-68
2022/02/12 06:44:42;;;;;;;18.45;7.22;;;0.00;84.50;;;;;;4988382;28;20030;-67
2022/02/12 06:47:10;;;;;;;14.52;6.53;;;0.10;83.90;;;;;;4982669;28;20034;-68
2022/02/12 06:49:36;;;;;;;15.27;6.00;;;0.20;83.50;;;;;;4981341;28;20560;-68
2022/02/12 06:52:03;;;;;;;15.55;6.72;;;0.30;82.90;;;;;;4984437;28;20037;-68
2022/02/12 06:54:29;;;;;;;15.13;7.45;;;0.30;82.40;;;;;;4989764;28;20503;-68
2022/02/12 06:56:54;;;;;;;12.75;7.03;;;0.40;81.90;;;;;;4992236;28;20027;-68
2022/02/12 06:59:20;;;;;;;17.40;7.03;;;0.40;81.60;;;;;;4983831;28;20464;-67
2022/02/12 07:01:46;;;;;;;16.55;7.60;;;0.50;81.50;;;;;;4986717;28;20035;-68
2022/02/12 07:04:11;;;;;;;16.27;7.35;;;0.50;81.20;;;;;;4990993;28;20041;-68
2022/02/12 07:06:37;;;;;;;20.48;6.90;;;0.50;81.40;;;;;;4999376;28;20038;-68
2022/02/12 07:09:04;;;;;;;18.98;6.97;;;0.50;80.70;;;;;;4986495;28;20478;-68
2022/02/12 07:11:30;;;;;;;16.13;7.03;;;0.50;80.50;;;;;;4997144;28;20041;-68
2022/02/12 07:13:56;;;;;;;19.63;6.95;;;0.60;80.40;;;;;;5003393;28;20026;-68
2022/02/12 07:16:22;;;;;;;15.23;6.22;;;0.60;80.30;;;;;;4985654;28;20375;-68
2022/02/12 07:18:48;;;;;;;13.25;7.35;;;0.60;80.20;;;;;;4985691;28;20066;-68
2022/02/12 07:21:14;;;;;;;15.80;7.43;;;0.60;80.20;;;;;;4986061;28;20038;-68
2022/02/12 07:23:40;;;;;;;18.40;6.95;;;0.60;80.10;;;;;;4985313;28;20417;-67
2022/02/12 07:26:07;;;;;;;17.60;7.35;;;0.60;80.10;;;;;;4986040;28;20046;-67
2022/02/12 07:28:32;;;;;;;15.57;6.38;;;0.60;80.00;;;;;;4985837;28;20529;-66
2022/02/12 07:30:58;;;;;;;19.75;7.75;;;0.60;80.00;;;;;;4986080;28;20170;-67
2022/02/12 07:33:27;;;;;;;19.63;7.88;;;0.60;79.90;;;;;;4967135;28;20130;-67
2022/02/12 07:35:54;;;;;;;17.40;7.20;;;0.60;79.80;;;;;;4985941;28;20050;-66
2022/02/12 07:38:20;;;;;;;14.27;6.88;;;0.70;79.90;;;;;;4983503;28;20473;-67
2022/02/12 07:40:46;;;;;;;22.05;7.75;;;0.60;80.00;;;;;;4971649;28;20115;-67
2022/02/12 07:43:12;;;;;;;21.33;7.82;;;0.70;80.30;;;;;;4953429;28;20031;-67
2022/02/12 07:45:38;;;;;;;18.63;7.97;;;0.70;80.50;;;;;;4972616;28;20713;-66
2022/02/12 07:48:04;;;;;;;16.50;7.18;;;0.70;80.60;;;;;;4972367;28;20046;-67
2022/02/12 07:50:30;;;;;;;26.75;10.23;;;0.70;80.60;;;;;;4972538;28;20027;-67
2022/02/12 07:52:55;;;;;;;16.70;7.32;;;0.70;80.50;;;;;;4971499;28;20030;-67
2022/02/12 07:55:21;;;;;;;16.90;8.02;;;0.80;80.40;;;;;;4973523;28;20035;-67
2022/02/12 07:57:47;;;;;;;20.35;8.20;;;0.80;80.30;;;;;;4972583;28;20057;-67
2022/02/12 08:00:15;;;;;;;17.38;7.22;;;0.80;80.30;;;;;;4972663;28;20476;-67
2022/02/12 08:02:41;;;;;;;18.13;7.80;;;0.80;80.30;;;;;;4971564;28;20162;-66
2022/02/12 08:05:08;;;;;;;18.92;6.85;;;0.90;80.30;;;;;;4972626;28;20113;-67
2022/02/12 08:07:37;;;;;;;17.05;7.85;;;0.90;80.40;;;;;;4968838;28;20058;-67
2022/02/12 08:12:59;;;;;;;15.43;7.88;;;1.00;80.50;;;;;;4972022;28;20070;-67
2022/02/12 08:15:25;;;;;;;11.80;7.22;;;1.00;80.50;;;;;;4968887;28;20054;-67
2022/02/12 08:17:51;;;;;;;15.27;6.80;;;1.00;80.60;;;;;;4971553;28;20101;-67
2022/02/12 08:20:17;;;;;;;15.63;6.95;;;1.00;80.60;;;;;;4974865;28;20501;-67
2022/02/12 08:22:43;;;;;;;14.23;7.38;;;1.10;80.70;;;;;;4972506;28;20086;-67
2022/02/12 08:25:09;;;;;;;17.75;6.80;;;1.10;80.70;;;;;;4972735;28;20034;-67
2022/02/12 08:27:35;;;;;;;16.38;7.35;;;1.10;80.80;;;;;;4972474;28;20030;-67
2022/02/12 08:30:02;;;;;;;18.13;6.60;;;1.20;80.80;;;;;;4972847;28;20074;-67
2022/02/12 08:32:27;;;;;;;16.17;7.70;;;1.30;80.90;;;;;;4944958;29;20084;-67
2022/02/12 08:34:54;;;;;;;15.07;7.00;;;1.30;80.90;;;;;;4952516;29;20066;-67
2022/02/12 08:37:20;;;;;;;16.83;6.80;;;1.40;80.90;;;;;;4935856;29;20107;-67
2022/02/12 08:39:46;;;;;;;24.40;7.40;;;1.40;80.90;;;;;;4953194;29;20151;-68
2022/02/12 08:42:11;;;;;;;12.13;6.22;;;1.50;80.90;;;;;;4953201;29;20136;-68
2022/02/12 08:44:40;;;;;;;17.05;7.10;;;1.50;80.90;;;;;;4935681;29;20128;-68
2022/02/12 08:47:06;;;;;;;18.30;8.05;;;1.60;81.00;;;;;;4950674;28;20156;-68
2022/02/12 08:49:31;;;;;;;19.67;6.78;;;1.60;81.00;;;;;;4950274;28;20038;-68
2022/02/12 08:51:57;;;;;;;16.02;6.72;;;1.70;81.10;;;;;;4933762;29;20031;-68
2022/02/12 08:54:23;;;;;;;13.32;6.85;;;1.70;81.10;;;;;;4942712;28;20019;-68
2022/02/12 08:56:49;;;;;;;14.63;6.32;;;1.70;81.00;;;;;;4952443;28;20036;-68
2022/02/12 08:59:15;;;;;;;16.33;6.03;;;1.80;81.10;;;;;;4956343;28;20083;-68
2022/02/12 09:01:41;;;;;;;19.60;6.13;;;1.90;81.20;;;;;;4952166;29;20031;-68
2022/02/12 09:04:11;;;;;;;13.27;5.97;;;1.90;81.20;;;;;;4950808;29;20027;-68
2022/02/12 09:06:39;;;;;;;17.20;6.20;;;1.90;81.10;;;;;;4948730;29;20434;-68
2022/02/12 09:09:08;;;;;;;13.75;6.00;;;2.00;81.10;;;;;;4950540;29;20031;-68
2022/02/12 09:11:36;;;;;;;13.25;6.32;;;2.00;81.10;;;;;;4952361;28;20085;-68
2022/02/12 09:14:02;;;;;;;10.77;4.93;;;2.10;81.10;;;;;;4967185;28;20020;-68
2022/02/12 09:16:28;;;;;;;17.58;5.65;;;2.10;81.00;;;;;;4952641;29;20035;-68
2022/02/12 09:18:53;;;;;;;12.80;4.78;;;2.10;80.90;;;;;;4949919;29;20117;-68
2022/02/12 09:21:21;;;;;;;15.10;5.13;;;2.20;81.50;;;;;;4952244;29;20117;-68
2022/02/12 09:23:47;;;;;;;13.23;4.75;;;2.30;81.00;;;;;;4952765;29;20036;-68
2022/02/12 09:26:13;;;;;;;15.20;5.70;;;2.40;81.00;;;;;;4948619;28;20020;-68
2022/02/12 09:28:39;;;;;;;14.82;5.45;;;2.40;80.80;;;;;;4971865;28;20045;-68
2022/02/12 09:31:05;;;;;;;10.73;4.60;;;2.60;80.90;;;;;;4951063;28;20039;-68
2022/02/12 09:33:30;;;;;;;13.40;5.65;;;2.70;80.70;;;;;;4951107;28;20530;-68
2022/02/12 09:35:56;;;;;;;16.77;5.05;;;2.70;80.60;;;;;;4952510;29;20047;-68
2022/02/12 09:38:26;;;;;;;13.48;5.28;;;2.80;80.60;;;;;;4926485;29;20039;-69
2022/02/12 09:40:56;;;;;;;13.45;5.25;;;2.90;80.20;;;;;;4950912;29;20031;-68
2022/02/12 09:43:23;;;;;;;16.40;5.38;;;3.00;79.90;;;;;;4934918;29;20039;-69
2022/02/12 09:46:32;;;;;;;17.98;5.43;;;3.10;79.50;;;;;;4941534;29;20043;-69
2022/02/12 09:49:00;;;;;;;12.00;4.78;;;3.30;79.50;;;;;;4936683;29;20035;-65
2022/02/12 09:51:27;;;;;;;12.07;4.68;;;3.30;79.50;;;;;;4950923;29;20019;-65
2022/02/12 09:53:53;;;;;;;12.70;4.70;;;3.40;79.00;;;;;;4954768;28;20086;-65
2022/02/12 09:56:19;;;;;;;14.02;5.00;;;3.40;78.90;;;;;;4950720;28;20093;-65
2022/02/12 09:58:45;;;;;;;12.02;4.70;;;3.50;78.90;;;;;;4951608;29;20037;-65
2022/02/12 10:01:11;;;;;;;14.18;4.65;;;3.70;78.70;;;;;;4951329;28;20376;-65
2022/02/12 10:03:41;;;;;;;12.13;4.53;;;3.80;78.50;;;;;;4954251;28;20039;-65
2022/02/12 10:06:11;;;;;;;12.48;4.53;;;3.80;77.50;;;;;;4952131;29;20557;-65
2022/02/12 10:08:37;;;;;;;11.48;4.30;;;4.00;76.90;;;;;;4950149;29;20038;-66
2022/02/12 10:11:16;;;;;;;10.52;4.50;;;4.00;77.10;;;;;;4942871;29;20051;-65
2022/02/12 10:13:42;;;;;;;11.38;4.53;;;4.10;77.00;;;;;;4952997;28;20027;-66
2022/02/12 10:16:07;;;;;;;9.95;3.95;;;4.30;76.80;;;;;;4957753;28;20019;-65
2022/02/12 10:18:36;;;;;;;12.77;4.90;;;4.40;76.70;;;;;;4949732;29;21424;-66
2022/02/12 10:21:03;;;;;;;9.55;4.20;;;4.50;75.40;;;;;;4950292;29;20498;-64
2022/02/12 10:23:31;;;;;;;14.70;3.80;;;4.60;75.70;;;;;;4948898;29;20049;-64
2022/02/12 10:26:02;;;;;;;8.27;3.53;;;4.70;75.70;;;;;;4943631;29;20143;-64
2022/02/12 10:28:33;;;;;;;11.50;4.37;;;4.90;75.50;;;;;;4938888;29;20881;-64
2022/02/12 10:31:00;;;;;;;10.80;3.47;;;5.00;75.30;;;;;;4951998;29;20626;-64
2022/02/12 10:33:27;;;;;;;10.73;4.10;;;5.20;75.20;;;;;;4952126;28;20134;-64
2022/02/12 10:36:00;;;;;;;15.93;4.68;;;5.30;74.60;;;;;;4950064;29;20364;-64
2022/02/12 10:38:29;;;;;;;14.68;4.30;;;5.40;74.20;;;;;;4947084;28;20039;-64
2022/02/12 10:41:19;;;;;;;12.55;3.88;;;5.40;73.70;;;;;;4949869;28;20034;-65
2022/02/12 10:43:49;;;;;;;13.75;4.20;;;5.40;73.20;;;;;;4954975;28;20036;-65
2022/02/12 10:46:16;;;;;;;11.50;3.55;;;5.40;73.00;;;;;;4954060;28;20023;-65
2022/02/12 10:48:42;;;;;;;18.08;4.75;;;5.50;73.60;;;;;;4953986;28;20058;-65
2022/02/12 10:51:26;;;;;;;11.25;4.25;;;5.60;72.70;;;;;;4955695;28;20444;-65
2022/02/12 10:54:07;;;;;;;12.65;4.38;;;5.70;71.70;;;;;;4950472;28;20110;-65
2022/02/12 10:56:50;;;;;;;10.25;4.10;;;5.80;70.80;;;;;;4958559;28;20042;-65
2022/02/12 10:59:22;;;;;;;10.30;4.03;;;5.90;71.20;;;;;;4956825;28;20035;-65
2022/02/12 11:01:48;;;;;;;11.10;3.20;;;6.40;69.90;;;;;;4952561;28;20047;-65
2022/02/12 11:04:16;;;;;;;9.18;3.63;;;6.30;70.00;;;;;;4948661;28;20031;-65
2022/02/12 11:06:44;;;;;;;14.02;3.40;;;6.50;70.10;;;;;;4950975;28;20920;-65
2022/02/12 11:09:11;;;;;;;12.88;3.22;;;6.50;68.80;;;;;;4950676;28;20074;-66
2022/02/12 11:11:38;;;;;;;7.85;3.10;;;6.50;68.40;;;;;;4953200;28;21263;-65
2022/02/12 11:14:07;;;;;;;9.52;3.53;;;6.40;68.40;;;;;;4934520;29;20027;-65
2022/02/12 11:16:35;;;;;;;10.63;3.10;;;6.30;67.40;;;;;;4939588;29;20032;-66
2022/02/12 11:19:01;;;;;;;11.70;4.05;;;6.20;67.50;;;;;;4949299;29;20027;-65
2022/02/12 11:21:29;;;;;;;10.27;3.65;;;6.20;67.40;;;;;;4954171;29;20066;-65
2022/02/12 11:24:02;;;;;;;10.50;3.15;;;6.20;67.90;;;;;;4953473;28;20030;-65
2022/02/12 11:26:37;;;;;;;9.65;3.75;;;6.40;67.70;;;;;;4956353;28;20023;-66
2022/02/12 11:29:28;;;;;;;6.93;3.10;;;6.50;67.30;;;;;;4954496;28;20467;-65
2022/02/12 11:32:26;;;;;;;17.40;3.97;;;6.70;66.50;;;;;;4943439;28;20038;-65
2022/02/12 11:35:10;;;;;;;13.65;3.67;;;6.90;65.20;;;;;;4955425;28;20035;-65
2022/02/12 11:37:38;;;;;;;8.15;3.05;;;6.90;65.90;;;;;;4972771;28;20050;-65
2022/02/12 11:40:28;;;;;;;13.07;3.63;;;7.10;65.60;;;;;;4957126;28;20097;-65
2022/02/12 11:43:04;;;;;;;10.02;4.07;;;7.10;65.60;;;;;;4970616;28;20086;-64
2022/02/12 11:45:47;;;;;;;8.30;3.35;;;7.30;64.50;;;;;;4976981;28;20030;-64
2022/02/12 11:48:24;;;;;;;;;;;7.40;63.60;;;;;;4972401;28;20041;-64
2022/02/12 11:50:51;;;;;;;13.25;3.35;;;7.60;63.00;;;;;;4971774;28;19913;-64
2022/02/12 11:53:38;;;;;;;10.60;2.80;;;7.70;63.10;;;;;;4972756;28;20378;-64
2022/02/12 11:56:07;;;;;;;7.60;3.03;;;7.80;61.90;;;;;;4957081;28;20067;-64
2022/02/12 11:58:56;;;;;;;14.95;3.40;;;7.90;61.00;;;;;;4972177;28;20027;-64
2022/02/12 12:01:21;;;;;;;9.95;2.85;;;8.00;60.00;;;;;;4963598;28;20736;-64
2022/02/12 12:07:05;;;;;;;10.57;2.90;;;8.10;58.70;;;;;;4978152;28;20046;-67
2022/02/12 12:09:39;;;;;;;;;;;8.20;57.90;;;;;;4975311;28;20540;-67
2022/02/12 12:12:23;;;;;;;8.18;3.25;;;8.60;58.80;;;;;;4992646;28;20368;-68
2022/02/12 12:15:11;;;;;;;7.50;2.92;;;8.90;57.80;;;;;;4992890;28;20061;-68
2022/02/12 12:19:53;;;;;;;9.07;2.45;;;9.90;55.50;;;;;;5127523;27;20382;-69
2022/02/12 12:22:21;;;;;;;8.18;2.90;;;10.40;54.20;;;;;;5109171;28;20693;-69
2022/02/12 12:24:47;;;;;;;8.10;2.95;;;11.20;51.90;;;;;;5110248;28;20024;-69
2022/02/12 12:27:17;;;;;;;7.07;2.63;;;12.00;50.30;;;;;;5104018;28;20029;-69
2022/02/12 12:32:30;;;;;;;8.13;2.67;;;13.40;46.00;;;;;;5107163;28;20540;-69
2022/02/12 12:35:05;;;;;;;10.20;2.92;;;14.60;45.00;;;;;;5107640;28;20463;-69
2022/02/12 12:37:33;;;;;;;8.02;2.63;;;15.70;40.90;;;;;;5123470;28;20124;-69
2022/02/12 12:40:03;;;;;;;9.95;3.03;;;16.30;40.30;;;;;;5106021;28;20134;-70
2022/02/12 12:42:30;;;;;;;10.02;2.80;;;17.20;39.60;;;;;;5106387;28;20036;-69
2022/02/12 12:44:58;;;;;;;9.65;3.45;;;17.80;36.50;;;;;;5090609;28;20405;-69
2022/02/12 12:47:25;;;;;;;11.23;3.38;;;18.30;36.40;;;;;;5106848;28;20123;-69
2022/02/12 12:49:54;;;;;;;10.60;3.53;;;18.90;35.20;;;;;;5076679;28;20086;-69
2022/02/12 12:52:23;;;;;;;11.60;3.20;;;19.20;32.20;;;;;;5101990;28;20088;-69
2022/02/12 12:54:54;;;;;;;10.48;3.20;;;19.50;33.30;;;;;;5106751;28;20370;-69
2022/02/12 12:57:27;;;;;;;5.70;2.42;;;19.90;30.90;;;;;;5106133;28;20436;-69
2022/02/12 12:59:55;;;;;;;8.15;2.92;;;20.00;31.80;;;;;;5106754;28;20031;-70
2022/02/12 13:02:21;;;;;;;8.73;3.05;;;20.50;30.20;;;;;;5106547;28;20076;-67
2022/02/12 13:04:55;;;;;;;10.15;3.03;;;21.10;30.10;;;;;;5106406;28;20125;-67
2022/02/12 13:07:27;;;;;;;9.23;2.47;;;21.60;29.50;;;;;;5106474;28;20093;-66
2022/02/12 13:09:59;;;;;;;6.50;2.30;;;21.50;28.40;;;;;;5106896;28;20364;-65
2022/02/12 13:12:29;;;;;;;7.23;2.67;;;21.40;29.10;;;;;;5107029;28;20474;-67
2022/02/12 13:14:57;;;;;;;6.22;2.47;;;21.00;28.00;;;;;;5088670;28;20028;-67
2022/02/12 13:17:24;;;;;;;6.30;2.40;;;20.30;28.50;;;;;;5106814;28;20028;-67
2022/02/12 13:19:50;;;;;;;7.22;2.47;;;19.40;29.00;;;;;;5106448;28;20043;-67
2022/02/12 13:22:17;;;;;;;7.68;2.58;;;18.80;29.20;;;;;;5106889;28;20020;-67
2022/02/12 13:24:51;;;;;;;11.95;2.70;;;18.10;30.20;;;;;;5106531;28;20036;-67
2022/02/12 13:27:25;;;;;;;4.78;2.10;;;17.40;30.80;;;;;;5107175;28;20024;-68
2022/02/12 13:30:01;;;;;;;6.82;2.00;;;16.70;32.00;;;;;;5101033;28;20027;-68
2022/02/12 13:32:46;;;;;;;8.60;2.72;;;16.30;32.90;;;;;;5078173;28;20020;-68
2022/02/12 13:35:17;;;;;;;9.30;2.63;;;16.40;32.70;;;;;;5072831;28;20027;-66
2022/02/12 13:37:55;;;;;;;8.15;2.38;;;16.40;32.40;;;;;;5071259;28;20059;-66
2022/02/12 13:40:27;;;;;;;9.13;2.38;;;16.50;32.40;;;;;;5072934;28;20074;-67
2022/02/12 13:42:59;;;;;;;5.50;2.47;;;16.90;32.40;;;;;;5072455;28;20082;-65
2022/02/12 13:45:26;;;;;;;9.00;2.70;;;17.20;32.40;;;;;;5072892;28;20029;-64
2022/02/12 13:48:00;;;;;;;8.98;2.97;;;17.60;32.40;;;;;;5072055;28;20640;-66
2022/02/12 13:50:28;;;;;;;6.55;2.95;;;18.00;31.00;;;;;;5089410;28;20129;-64
2022/02/12 13:53:04;;;;;;;8.00;2.97;;;18.10;31.00;;;;;;5063990;28;20047;-67
2022/02/12 13:55:49;;;;;;;5.80;2.70;;;18.30;31.20;;;;;;5092219;28;20032;-67
2022/02/12 13:58:15;;;;;;;8.65;2.90;;;18.60;30.10;;;;;;5090530;28;20036;-66
2022/02/12 14:00:42;;;;;;;10.45;3.22;;;18.70;30.30;;;;;;5092276;28;20024;-67
2022/02/12 14:03:08;;;;;;;13.30;4.10;;;18.60;31.10;;;;;;5073549;28;20194;-68
2022/02/12 14:05:34;;;;;;;7.22;2.67;;;18.50;31.30;;;;;;5092510;28;20048;-67
2022/02/12 14:07:59;;;;;;;7.60;2.70;;;18.30;31.60;;;;;;5107588;28;20052;-67
2022/02/12 14:10:26;;;;;;;6.90;2.85;;;18.20;32.10;;;;;;5091299;28;20062;-67
2022/02/12 14:12:57;;;;;;;5.53;2.53;;;18.10;31.60;;;;;;5106567;28;20139;-68
2022/02/12 14:15:23;;;;;;;9.57;3.30;;;17.90;31.10;;;;;;5088564;28;20331;-67
2022/02/12 14:17:49;;;;;;;7.75;2.92;;;17.80;32.00;;;;;;5094499;28;20052;-66
2022/02/12 14:20:15;;;;;;;10.02;3.50;;;17.70;32.10;;;;;;5089498;28;20020;-66
2022/02/12 14:22:44;;;;;;;8.27;2.97;;;17.60;32.50;;;;;;5091122;28;20024;-65
2022/02/12 14:25:10;;;;;;;7.78;3.38;;;17.40;32.90;;;;;;5090616;28;20020;-66
2022/02/12 14:27:36;;;;;;;7.25;3.03;;;17.50;32.00;;;;;;5088063;28;20020;-65
2022/02/12 14:30:04;;;;;;;9.35;3.08;;;17.70;32.80;;;;;;5070898;28;20385;-67
2022/02/12 14:32:30;;;;;;;9.85;3.53;;;17.90;32.30;;;;;;5091765;28;20028;-67
2022/02/12 14:34:56;;;;;;;10.73;3.15;;;18.00;31.70;;;;;;5072788;28;20056;-66
2022/02/12 14:37:22;;;;;;;7.53;2.90;;;18.10;31.70;;;;;;5091246;28;20384;-68
2022/02/12 14:39:48;;;;;;;7.50;3.10;;;18.30;30.90;;;;;;5091602;28;20058;-68
2022/02/12 14:42:15;;;;;;;7.90;2.90;;;18.30;30.90;;;;;;5090510;28;20082;-68
2022/02/12 14:44:44;;;;;;;8.77;3.10;;;18.40;30.80;;;;;;5073039;28;20060;-68
2022/02/12 14:47:11;;;;;;;8.82;3.08;;;18.40;30.60;;;;;;5090790;28;20036;-69
2022/02/12 14:49:37;;;;;;;9.90;3.40;;;18.20;31.00;;;;;;5081664;28;20089;-68
2022/02/12 15:19:58;;;;;;;6.40;2.55;;;16.80;31.20;;;;;;5113288;27;20131;-66
2022/02/12 15:38:02;;;;;;;6.38;2.97;;;14.30;34.00;;;;;;5107044;27;20112;-67
2022/02/12 15:40:29;;;;;;;7.80;3.17;;;13.60;36.00;;;;;;5086687;28;20127;-64
2022/02/12 15:42:56;;;;;;;6.93;2.60;;;13.30;37.20;;;;;;5083562;28;20107;-65
2022/02/12 15:45:22;;;;;;;6.72;2.85;;;13.10;37.80;;;;;;5078830;28;20086;-65
2022/02/12 15:47:48;;;;;;;10.65;3.65;;;12.80;37.70;;;;;;5079325;28;20073;-65
2022/02/12 15:50:13;;;;;;;8.18;2.88;;;12.60;38.50;;;;;;5085199;28;20052;-65
2022/02/12 15:52:39;;;;;;;6.35;3.13;;;12.40;38.70;;;;;;5077064;28;20038;-66
2022/02/12 15:55:08;;;;;;;10.85;2.70;;;12.30;39.00;;;;;;5085867;28;20032;-65
2022/02/12 15:57:33;;;;;;;7.63;3.00;;;12.20;39.50;;;;;;5086701;28;20491;-65
2022/02/12 15:59:59;;;;;;;8.43;3.17;;;12.20;39.80;;;;;;5101485;28;20034;-65
2022/02/12 16:02:25;;;;;;;6.55;2.78;;;12.10;40.20;;;;;;5085636;28;20058;-65
2022/02/12 16:04:50;;;;;;;6.70;2.70;;;12.00;40.50;;;;;;5083687;28;20123;-65
2022/02/12 16:07:16;;;;;;;8.48;3.35;;;11.90;40.70;;;;;;5083510;28;20028;-65
2022/02/12 16:09:42;;;;;;;10.55;3.35;;;11.80;40.50;;;;;;5081468;28;20103;-65
2022/02/12 16:12:07;;;;;;;10.65;2.83;;;11.70;40.50;;;;;;5079876;28;20044;-65
2022/02/12 16:14:33;;;;;;;7.93;2.90;;;11.60;40.50;;;;;;5084561;28;20051;-65
2022/02/12 16:16:59;;;;;;;9.07;2.97;;;11.50;40.60;;;;;;5082104;28;20067;-65
2022/02/12 16:19:26;;;;;;;8.13;3.10;;;11.50;41.20;;;;;;5084975;28;20028;-65
2022/02/12 16:21:52;;;;;;;6.47;2.65;;;11.40;41.70;;;;;;5084417;28;20036;-66
2022/02/12 16:24:18;;;;;;;8.50;2.55;;;11.40;41.50;;;;;;5080715;28;20035;-66
2022/02/12 16:26:44;;;;;;;9.23;2.85;;;11.30;41.80;;;;;;5085180;28;20031;-68
2022/02/12 16:29:10;;;;;;;7.43;3.35;;;11.20;41.70;;;;;;5085511;28;20054;-68
2022/02/12 16:31:36;;;;;;;7.20;3.00;;;11.10;42.10;;;;;;5100396;28;20028;-68
2022/02/12 16:34:02;;;;;;;5.15;2.42;;;11.00;41.90;;;;;;5085906;28;20062;-68
2022/02/12 16:36:33;;;;;;;5.65;2.55;;;11.00;42.10;;;;;;5084182;28;20052;-67
2022/02/12 16:39:06;;;;;;;10.77;3.00;;;10.90;42.80;;;;;;5086026;28;20549;-68
2022/02/12 16:41:32;;;;;;;6.65;3.08;;;10.90;43.30;;;;;;5103676;28;20031;-68
2022/02/12 16:43:58;;;;;;;6.72;2.47;;;10.90;43.20;;;;;;5087789;28;20364;-68
2022/02/12 16:46:23;;;;;;;7.68;3.47;;;10.90;43.30;;;;;;5098302;28;20039;-68
2022/02/12 16:48:49;;;;;;;6.00;2.58;;;10.80;43.60;;;;;;5083809;28;20143;-68
2022/02/12 16:51:16;;;;;;;6.50;2.83;;;10.70;43.60;;;;;;5054402;28;20033;-68
2022/02/12 16:53:48;;;;;;;7.90;2.92;;;10.60;43.70;;;;;;5067341;28;20442;-67
2022/02/12 16:56:14;;;;;;;9.70;3.60;;;10.60;44.20;;;;;;5089278;28;20470;-68
2022/02/12 16:58:39;;;;;;;8.38;3.25;;;10.50;44.40;;;;;;5063002;28;20035;-68
2022/02/12 17:01:05;;;;;;;11.23;3.45;;;10.50;44.40;;;;;;5070554;28;20028;-68
2022/02/12 17:03:31;;;;;;;6.53;2.55;;;10.50;44.60;;;;;;5066769;28;20395;-68
2022/02/12 17:05:56;;;;;;;7.50;3.13;;;10.40;45.10;;;;;;5072365;28;20098;-68
2022/02/12 17:08:24;;;;;;;7.68;2.92;;;10.40;45.40;;;;;;5086389;28;20028;-68
2022/02/12 17:10:50;;;;;;;8.40;3.28;;;10.30;45.40;;;;;;5069244;28;20028;-67
2022/02/12 17:13:16;;;;;;;8.98;3.78;;;10.30;45.50;;;;;;5076657;28;20379;-67
2022/02/12 17:15:46;;;;;;;5.18;2.97;;;10.20;45.80;;;;;;5071867;28;20032;-68
2022/02/12 17:18:12;;;;;;;8.70;3.17;;;10.20;46.00;;;;;;5067283;28;20056;-68
2022/02/12 17:20:38;;;;;;;7.47;2.90;;;10.20;46.30;;;;;;5090251;28;20032;-68
2022/02/12 17:23:04;;;;;;;9.77;3.80;;;10.20;46.40;;;;;;5078518;28;20364;-68
2022/02/12 17:25:30;;;;;;;7.57;4.03;;;10.10;46.60;;;;;;5058813;28;20441;-68
2022/02/12 17:27:56;;;;;;;10.40;3.22;;;10.10;46.80;;;;;;5089120;28;20055;-68